sensor_id;sensor_type;location;lat;lon;timestamp;pressure;altitude;pressure_sealevel;temperature;humidity
59531;BME280;45349;48.692;8.186;2022-08-01T00:00:05;98774.06;;;19.22;60.43
59531;BME280;45349;48.692;8.186;2022-08-01T00:02:33;98773.69;;;19.18;60.33
59531;BME280;45349;48.692;8.186;2022-08-01T00:05:00;98780.59;;;19.13;60.28
59531;BME280;45349;48.692;8.186;2022-08-01T00:07:28;98786.09;;;19.11;60.90
59531;BME280;45349;48.692;8.186;2022-08-01T00:09:55;98775.91;;;19.15;61.50
59531;BME280;45349;48.692;8.186;2022-08-01T00:12:21;98782.84;;;19.09;61.21
59531;BME280;45349;48.692;8.186;2022-08-01T00:14:48;98782.44;;;19.06;61.09
59531;BME280;45349;48.692;8.186;2022-08-01T00:17:15;98778.16;;;19.05;61.16
59531;BME280;45349;48.692;8.186;2022-08-01T00:19:42;98787.53;;;19.00;62.15
59531;BME280;45349;48.692;8.186;2022-08-01T00:22:08;98781.22;;;19.01;62.65
59531;BME280;45349;48.692;8.186;2022-08-01T00:24:39;98778.56;;;19.01;62.57
59531;BME280;45349;48.692;8.186;2022-08-01T00:27:05;98778.13;;;18.91;62.58
59531;BME280;45349;48.692;8.186;2022-08-01T00:29:32;98781.00;;;18.96;62.14
59531;BME280;45349;48.692;8.186;2022-08-01T00:31:59;98785.44;;;18.89;62.00
59531;BME280;45349;48.692;8.186;2022-08-01T00:34:26;98778.69;;;18.86;62.76
59531;BME280;45349;48.692;8.186;2022-08-01T00:36:53;98778.31;;;18.83;62.85
59531;BME280;45349;48.692;8.186;2022-08-01T00:39:19;98778.69;;;18.86;63.36
59531;BME280;45349;48.692;8.186;2022-08-01T00:41:48;98780.13;;;18.76;62.94
59531;BME280;45349;48.692;8.186;2022-08-01T00:44:15;98778.28;;;18.69;63.41
59531;BME280;45349;48.692;8.186;2022-08-01T00:46:42;98772.38;;;18.67;63.72
59531;BME280;45349;48.692;8.186;2022-08-01T00:49:09;98772.78;;;18.64;63.95
59531;BME280;45349;48.692;8.186;2022-08-01T00:51:35;98777.44;;;18.62;64.84
59531;BME280;45349;48.692;8.186;2022-08-01T00:54:02;98777.00;;;18.58;64.45
59531;BME280;45349;48.692;8.186;2022-08-01T00:56:29;98764.81;;;18.51;64.29
59531;BME280;45349;48.692;8.186;2022-08-01T00:58:58;98763.78;;;18.52;65.17
59531;BME280;45349;48.692;8.186;2022-08-01T01:01:24;98764.81;;;18.51;65.42
59531;BME280;45349;48.692;8.186;2022-08-01T01:03:52;98770.50;;;18.48;65.27
59531;BME280;45349;48.692;8.186;2022-08-01T01:06:26;98771.50;;;18.40;65.38
59531;BME280;45349;48.692;8.186;2022-08-01T01:09:02;98765.59;;;18.38;66.52
59531;BME280;45349;48.692;8.186;2022-08-01T01:11:39;98763.34;;;18.35;66.32
59531;BME280;45349;48.692;8.186;2022-08-01T01:14:19;98765.94;;;18.28;66.11
59531;BME280;45349;48.692;8.186;2022-08-01T01:16:48;98772.06;;;18.35;65.75
59531;BME280;45349;48.692;8.186;2022-08-01T01:19:18;98767.00;;;18.40;66.50
59531;BME280;45349;48.692;8.186;2022-08-01T01:22:00;98776.56;;;18.35;67.30
59531;BME280;45349;48.692;8.186;2022-08-01T01:24:37;98773.88;;;18.28;67.11
59531;BME280;45349;48.692;8.186;2022-08-01T01:27:10;98764.53;;;18.32;66.46
59531;BME280;45349;48.692;8.186;2022-08-01T01:29:48;98769.19;;;18.30;67.09
59531;BME280;45349;48.692;8.186;2022-08-01T01:32:18;98777.41;;;18.42;67.09
59531;BME280;45349;48.692;8.186;2022-08-01T01:34:48;98778.81;;;18.38;67.04
59531;BME280;45349;48.692;8.186;2022-08-01T01:37:18;98776.56;;;18.35;67.28
59531;BME280;45349;48.692;8.186;2022-08-01T01:39:48;98776.50;;;18.28;67.93
59531;BME280;45349;48.692;8.186;2022-08-01T01:42:16;98785.28;;;18.35;68.13
59531;BME280;45349;48.692;8.186;2022-08-01T01:44:46;98768.78;;;18.26;68.27
59531;BME280;45349;48.692;8.186;2022-08-01T01:47:14;98776.28;;;18.23;68.62
59531;BME280;45349;48.692;8.186;2022-08-01T01:49:44;98774.25;;;18.18;68.34
59531;BME280;45349;48.692;8.186;2022-08-01T01:52:13;98775.22;;;18.10;69.30
59531;BME280;45349;48.692;8.186;2022-08-01T01:54:46;98772.19;;;18.13;70.12
59531;BME280;45349;48.692;8.186;2022-08-01T01:57:14;98767.69;;;18.07;69.86
59531;BME280;45349;48.692;8.186;2022-08-01T01:59:45;98772.34;;;18.05;70.90
59531;BME280;45349;48.692;8.186;2022-08-01T02:02:13;98770.75;;;18.11;70.69
59531;BME280;45349;48.692;8.186;2022-08-01T02:04:42;98769.06;;;18.03;70.42
59531;BME280;45349;48.692;8.186;2022-08-01T02:07:12;98769.66;;;17.98;70.09
59531;BME280;45349;48.692;8.186;2022-08-01T02:09:41;98766.78;;;17.93;71.27
59531;BME280;45349;48.692;8.186;2022-08-01T02:12:10;98760.47;;;17.88;71.01
59531;BME280;45349;48.692;8.186;2022-08-01T02:14:37;98774.06;;;17.91;72.53
59531;BME280;45349;48.692;8.186;2022-08-01T02:17:07;98765.31;;;17.84;72.06
59531;BME280;45349;48.692;8.186;2022-08-01T02:19:37;98764.66;;;17.75;72.59
59531;BME280;45349;48.692;8.186;2022-08-01T02:22:07;98762.63;;;17.77;73.13
59531;BME280;45349;48.692;8.186;2022-08-01T02:24:38;98762.97;;;17.67;73.25
59531;BME280;45349;48.692;8.186;2022-08-01T02:27:09;98763.56;;;17.63;72.84
59531;BME280;45349;48.692;8.186;2022-08-01T02:29:39;98758.47;;;17.61;73.70
59531;BME280;45349;48.692;8.186;2022-08-01T02:32:12;98761.31;;;17.60;73.89
59531;BME280;45349;48.692;8.186;2022-08-01T02:34:41;98761.31;;;17.60;73.56
59531;BME280;45349;48.692;8.186;2022-08-01T02:37:10;98765.81;;;17.66;73.84
59531;BME280;45349;48.692;8.186;2022-08-01T02:39:38;98758.69;;;17.66;73.38
59531;BME280;45349;48.692;8.186;2022-08-01T02:42:07;98762.50;;;17.57;73.30
59531;BME280;45349;48.692;8.186;2022-08-01T02:44:37;98760.88;;;17.56;73.73
59531;BME280;45349;48.692;8.186;2022-08-01T02:47:06;98760.47;;;17.59;74.35
59531;BME280;45349;48.692;8.186;2022-08-01T02:49:36;98769.41;;;17.58;74.59
59531;BME280;45349;48.692;8.186;2022-08-01T02:52:07;98770.00;;;17.53;74.08
59531;BME280;45349;48.692;8.186;2022-08-01T02:54:35;98765.97;;;17.58;74.90
59531;BME280;45349;48.692;8.186;2022-08-01T02:57:04;98779.53;;;17.54;75.10
59531;BME280;45349;48.692;8.186;2022-08-01T02:59:33;98771.78;;;17.46;74.90
59531;BME280;45349;48.692;8.186;2022-08-01T03:02:03;98772.78;;;17.45;75.54
59531;BME280;45349;48.692;8.186;2022-08-01T03:04:34;98774.03;;;17.49;75.45
59531;BME280;45349;48.692;8.186;2022-08-01T03:07:04;98771.16;;;17.44;75.64
59531;BME280;45349;48.692;8.186;2022-08-01T03:09:34;98775.00;;;17.41;75.69
59531;BME280;45349;48.692;8.186;2022-08-01T03:12:05;98772.59;;;17.47;76.68
59531;BME280;45349;48.692;8.186;2022-08-01T03:14:35;98776.44;;;17.44;76.22
59531;BME280;45349;48.692;8.186;2022-08-01T03:17:04;98769.03;;;17.33;75.76
59531;BME280;45349;48.692;8.186;2022-08-01T03:19:31;98773.50;;;17.32;77.11
59531;BME280;45349;48.692;8.186;2022-08-01T03:22:01;98766.59;;;17.31;77.30
59531;BME280;45349;48.692;8.186;2022-08-01T03:24:29;98775.31;;;17.32;77.53
59531;BME280;45349;48.692;8.186;2022-08-01T03:26:57;98767.00;;;17.35;77.83
59531;BME280;45349;48.692;8.186;2022-08-01T03:29:26;98778.78;;;17.32;77.69
59531;BME280;45349;48.692;8.186;2022-08-01T03:31:56;98770.25;;;17.30;78.17
59531;BME280;45349;48.692;8.186;2022-08-01T03:34:24;98769.00;;;17.26;78.03
59531;BME280;45349;48.692;8.186;2022-08-01T03:36:54;98766.91;;;17.21;78.23
59531;BME280;45349;48.692;8.186;2022-08-01T03:39:28;98768.41;;;17.31;78.33
59531;BME280;45349;48.692;8.186;2022-08-01T03:42:00;98771.03;;;17.31;78.08
59531;BME280;45349;48.692;8.186;2022-08-01T03:44:31;98763.09;;;17.24;77.73
59531;BME280;45349;48.692;8.186;2022-08-01T03:47:03;98766.72;;;17.23;78.03
59531;BME280;45349;48.692;8.186;2022-08-01T03:49:35;98766.09;;;17.21;78.18
59531;BME280;45349;48.692;8.186;2022-08-01T03:52:05;98765.53;;;17.25;78.83
59531;BME280;45349;48.692;8.186;2022-08-01T03:54:35;98769.91;;;17.40;78.52
59531;BME280;45349;48.692;8.186;2022-08-01T03:57:04;98765.50;;;17.47;78.31
59531;BME280;45349;48.692;8.186;2022-08-01T03:59:32;98764.28;;;17.50;77.84
59531;BME280;45349;48.692;8.186;2022-08-01T04:02:02;98766.97;;;17.56;77.00
59531;BME280;45349;48.692;8.186;2022-08-01T04:04:29;98768.00;;;17.62;77.60
59531;BME280;45349;48.692;8.186;2022-08-01T04:06:56;98759.75;;;17.72;77.39
59531;BME280;45349;48.692;8.186;2022-08-01T04:09:29;98761.03;;;17.83;76.41
59531;BME280;45349;48.692;8.186;2022-08-01T04:11:58;98760.47;;;17.88;76.78
59531;BME280;45349;48.692;8.186;2022-08-01T04:14:24;98765.16;;;17.92;76.98
59531;BME280;45349;48.692;8.186;2022-08-01T04:16:51;98773.28;;;17.91;76.26
59531;BME280;45349;48.692;8.186;2022-08-01T04:19:18;98774.31;;;17.96;76.08
59531;BME280;45349;48.692;8.186;2022-08-01T04:21:45;98777.00;;;18.03;75.66
59531;BME280;45349;48.692;8.186;2022-08-01T04:24:13;98771.78;;;18.10;76.37
59531;BME280;45349;48.692;8.186;2022-08-01T04:26:44;98772.63;;;18.17;76.52
59531;BME280;45349;48.692;8.186;2022-08-01T04:29:15;98777.28;;;18.15;76.02
59531;BME280;45349;48.692;8.186;2022-08-01T04:31:43;98780.50;;;18.10;76.31
59531;BME280;45349;48.692;8.186;2022-08-01T04:34:31;98789.47;;;18.16;76.39
59531;BME280;45349;48.692;8.186;2022-08-01T04:37:00;98789.47;;;18.16;76.17
59531;BME280;45349;48.692;8.186;2022-08-01T04:39:31;98787.63;;;18.17;75.61
59531;BME280;45349;48.692;8.186;2022-08-01T04:42:00;98793.38;;;18.20;75.46
59531;BME280;45349;48.692;8.186;2022-08-01T04:44:30;98795.22;;;18.26;76.15
59531;BME280;45349;48.692;8.186;2022-08-01T04:46:58;98791.41;;;18.36;76.10
59531;BME280;45349;48.692;8.186;2022-08-01T04:49:26;98789.38;;;18.44;76.05
59531;BME280;45349;48.692;8.186;2022-08-01T04:51:54;98796.13;;;18.54;75.58
59531;BME280;45349;48.692;8.186;2022-08-01T04:54:23;98791.06;;;18.59;75.66
59531;BME280;45349;48.692;8.186;2022-08-01T04:56:50;98793.53;;;18.67;75.46
59531;BME280;45349;48.692;8.186;2022-08-01T04:59:19;98793.34;;;18.76;75.31
59531;BME280;45349;48.692;8.186;2022-08-01T05:02:04;98793.56;;;18.87;74.55
59531;BME280;45349;48.692;8.186;2022-08-01T05:04:31;98790.72;;;18.89;74.99
59531;BME280;45349;48.692;8.186;2022-08-01T05:06:58;98782.19;;;18.94;74.05
59531;BME280;45349;48.692;8.186;2022-08-01T05:09:25;98795.63;;;18.92;74.15
59531;BME280;45349;48.692;8.186;2022-08-01T05:11:51;98785.03;;;18.92;74.28
59531;BME280;45349;48.692;8.186;2022-08-01T05:14:18;98788.69;;;18.91;74.39
59531;BME280;45349;48.692;8.186;2022-08-01T05:16:46;98794.38;;;18.88;74.30
59531;BME280;45349;48.692;8.186;2022-08-01T05:19:14;98790.91;;;18.87;75.66
59531;BME280;45349;48.692;8.186;2022-08-01T05:21:41;98793.56;;;18.87;74.53
59531;BME280;45349;48.692;8.186;2022-08-01T05:24:08;98797.03;;;18.88;75.08
59531;BME280;45349;48.692;8.186;2022-08-01T05:26:35;98798.25;;;18.92;75.01
59531;BME280;45349;48.692;8.186;2022-08-01T05:29:03;98803.34;;;18.94;75.13
59531;BME280;45349;48.692;8.186;2022-08-01T05:31:29;98801.38;;;19.02;74.91
59531;BME280;45349;48.692;8.186;2022-08-01T05:34:20;98797.69;;;19.17;75.29
59531;BME280;45349;48.692;8.186;2022-08-01T05:36:47;98802.78;;;19.25;75.00
59531;BME280;45349;48.692;8.186;2022-08-01T05:39:14;98807.06;;;19.33;73.83
59531;BME280;45349;48.692;8.186;2022-08-01T05:41:41;98806.03;;;19.41;73.79
59531;BME280;45349;48.692;8.186;2022-08-01T05:44:08;98808.91;;;19.53;73.46
59531;BME280;45349;48.692;8.186;2022-08-01T05:46:35;98809.88;;;19.65;72.74
59531;BME280;45349;48.692;8.186;2022-08-01T05:49:04;98810.47;;;19.81;72.05
59531;BME280;45349;48.692;8.186;2022-08-01T05:51:32;98810.28;;;19.89;72.27
59531;BME280;45349;48.692;8.186;2022-08-01T05:53:59;98811.91;;;19.83;71.01
59531;BME280;45349;48.692;8.186;2022-08-01T05:56:26;98805.00;;;19.89;71.25
59531;BME280;45349;48.692;8.186;2022-08-01T05:58:53;98806.63;;;19.97;71.25
59531;BME280;45349;48.692;8.186;2022-08-01T06:01:20;98811.28;;;20.01;70.89
59531;BME280;45349;48.692;8.186;2022-08-01T06:03:47;98810.22;;;20.16;69.72
59531;BME280;45349;48.692;8.186;2022-08-01T06:06:13;98808.75;;;20.27;70.15
59531;BME280;45349;48.692;8.186;2022-08-01T06:08:42;98810.75;;;20.38;69.84
59531;BME280;45349;48.692;8.186;2022-08-01T06:11:08;98805.63;;;20.43;69.33
59531;BME280;45349;48.692;8.186;2022-08-01T06:13:35;98805.56;;;20.57;68.94
59531;BME280;45349;48.692;8.186;2022-08-01T06:16:02;98814.06;;;20.72;68.45
59531;BME280;45349;48.692;8.186;2022-08-01T06:18:29;98803.41;;;20.86;67.51
59531;BME280;45349;48.692;8.186;2022-08-01T06:20:56;98804.13;;;21.00;66.31
59531;BME280;45349;48.692;8.186;2022-08-01T06:23:23;98801.19;;;21.15;66.01
59531;BME280;45349;48.692;8.186;2022-08-01T06:25:53;98810.66;;;21.29;65.29
59531;BME280;45349;48.692;8.186;2022-08-01T06:28:20;98809.50;;;21.44;64.69
59531;BME280;45349;48.692;8.186;2022-08-01T06:30:47;98810.59;;;21.61;64.08
59531;BME280;45349;48.692;8.186;2022-08-01T06:33:14;98815.53;;;21.83;62.24
59531;BME280;45349;48.692;8.186;2022-08-01T06:35:41;98813.34;;;21.99;61.80
59531;BME280;45349;48.692;8.186;2022-08-01T06:38:08;98812.75;;;22.15;61.21
59531;BME280;45349;48.692;8.186;2022-08-01T06:40:35;98816.72;;;22.24;60.63
59531;BME280;45349;48.692;8.186;2022-08-01T06:43:05;98826.38;;;22.37;60.73
59531;BME280;45349;48.692;8.186;2022-08-01T06:45:31;98826.25;;;22.51;59.94
59531;BME280;45349;48.692;8.186;2022-08-01T06:47:58;98817.53;;;22.62;59.61
59531;BME280;45349;48.692;8.186;2022-08-01T06:50:25;98821.25;;;22.73;59.59
59531;BME280;45349;48.692;8.186;2022-08-01T06:52:52;98826.84;;;22.83;59.03
59531;BME280;45349;48.692;8.186;2022-08-01T06:55:19;98826.72;;;22.78;59.16
59531;BME280;45349;48.692;8.186;2022-08-01T06:57:47;98828.88;;;23.00;58.36
59531;BME280;45349;48.692;8.186;2022-08-01T07:00:16;98831.53;;;23.00;58.63
59531;BME280;45349;48.692;8.186;2022-08-01T07:02:46;98829.00;;;23.05;58.52
59531;BME280;45349;48.692;8.186;2022-08-01T07:05:12;98829.06;;;22.98;58.32
59531;BME280;45349;48.692;8.186;2022-08-01T07:07:43;98819.94;;;23.25;57.93
59531;BME280;45349;48.692;8.186;2022-08-01T07:10:10;98828.28;;;23.52;57.52
59531;BME280;45349;48.692;8.186;2022-08-01T07:12:37;98829.56;;;23.73;56.27
59531;BME280;45349;48.692;8.186;2022-08-01T07:15:07;98839.06;;;23.69;55.71
59531;BME280;45349;48.692;8.186;2022-08-01T07:17:37;98826.66;;;23.51;56.40
59531;BME280;45349;48.692;8.186;2022-08-01T07:20:07;98824.06;;;23.21;57.61
59531;BME280;45349;48.692;8.186;2022-08-01T07:22:34;98825.88;;;23.20;57.62
59531;BME280;45349;48.692;8.186;2022-08-01T07:25:00;98828.34;;;23.22;57.22
59531;BME280;45349;48.692;8.186;2022-08-01T07:27:46;98825.72;;;23.34;56.85
59531;BME280;45349;48.692;8.186;2022-08-01T07:30:13;98826.63;;;23.39;57.48
59531;BME280;45349;48.692;8.186;2022-08-01T07:32:41;98828.75;;;23.61;56.30
59531;BME280;45349;48.692;8.186;2022-08-01T07:35:08;98828.16;;;23.47;56.66
59531;BME280;45349;48.692;8.186;2022-08-01T07:37:35;98827.69;;;23.62;56.19
59531;BME280;45349;48.692;8.186;2022-08-01T07:40:03;98822.03;;;23.58;56.48
59531;BME280;45349;48.692;8.186;2022-08-01T07:42:30;98829.22;;;23.70;56.64
59531;BME280;45349;48.692;8.186;2022-08-01T07:44:57;98823.75;;;23.77;55.58
59531;BME280;45349;48.692;8.186;2022-08-01T07:47:25;98821.69;;;23.67;55.78
59531;BME280;45349;48.692;8.186;2022-08-01T07:49:59;98816.94;;;23.45;56.53
59531;BME280;45349;48.692;8.186;2022-08-01T07:52:25;98823.06;;;23.46;56.88
59531;BME280;45349;48.692;8.186;2022-08-01T07:54:52;98817.84;;;23.51;57.00
59531;BME280;45349;48.692;8.186;2022-08-01T07:57:20;98822.72;;;23.78;56.49
59531;BME280;45349;48.692;8.186;2022-08-01T07:59:46;98823.38;;;23.97;56.86
59531;BME280;45349;48.692;8.186;2022-08-01T08:02:13;98816.66;;;24.18;56.04
59531;BME280;45349;48.692;8.186;2022-08-01T08:04:40;98818.41;;;24.24;55.10
59531;BME280;45349;48.692;8.186;2022-08-01T08:07:09;98818.25;;;24.31;55.03
59531;BME280;45349;48.692;8.186;2022-08-01T08:09:36;98814.22;;;24.28;55.51
59531;BME280;45349;48.692;8.186;2022-08-01T08:12:03;98817.06;;;24.39;54.22
59531;BME280;45349;48.692;8.186;2022-08-01T08:14:30;98814.25;;;24.45;53.51
59531;BME280;45349;48.692;8.186;2022-08-01T08:16:57;98817.88;;;24.39;54.24
59531;BME280;45349;48.692;8.186;2022-08-01T08:19:23;98799.88;;;24.46;54.07
59531;BME280;45349;48.692;8.186;2022-08-01T08:21:50;98804.69;;;24.32;54.99
59531;BME280;45349;48.692;8.186;2022-08-01T08:24:18;98801.94;;;24.27;54.26
59531;BME280;45349;48.692;8.186;2022-08-01T08:26:51;98801.63;;;24.41;54.46
59531;BME280;45349;48.692;8.186;2022-08-01T08:29:20;98803.31;;;24.59;53.67
59531;BME280;45349;48.692;8.186;2022-08-01T08:31:47;98805.03;;;24.65;53.67
59531;BME280;45349;48.692;8.186;2022-08-01T08:34:14;98810.59;;;24.75;53.15
59531;BME280;45349;48.692;8.186;2022-08-01T08:36:41;98811.47;;;24.81;52.00
59531;BME280;45349;48.692;8.186;2022-08-01T08:39:08;98813.81;;;24.78;52.18
59531;BME280;45349;48.692;8.186;2022-08-01T08:41:36;98804.47;;;24.63;53.54
59531;BME280;45349;48.692;8.186;2022-08-01T08:44:04;98806.88;;;24.65;53.44
59531;BME280;45349;48.692;8.186;2022-08-01T08:46:32;98801.63;;;24.82;52.96
59531;BME280;45349;48.692;8.186;2022-08-01T08:49:00;98809.00;;;25.09;52.30
59531;BME280;45349;48.692;8.186;2022-08-01T08:51:49;98803.72;;;25.14;51.76
59531;BME280;45349;48.692;8.186;2022-08-01T08:54:17;98804.31;;;25.16;51.76
59531;BME280;45349;48.692;8.186;2022-08-01T08:56:48;98791.53;;;25.01;52.69
59531;BME280;45349;48.692;8.186;2022-08-01T08:59:17;98803.91;;;25.24;52.50
59531;BME280;45349;48.692;8.186;2022-08-01T09:01:44;98799.22;;;25.31;52.04
59531;BME280;45349;48.692;8.186;2022-08-01T09:04:11;98795.81;;;25.36;52.07
59531;BME280;45349;48.692;8.186;2022-08-01T09:06:38;98792.88;;;25.55;52.06
59531;BME280;45349;48.692;8.186;2022-08-01T09:09:06;98800.50;;;25.63;50.91
59531;BME280;45349;48.692;8.186;2022-08-01T09:11:33;98797.13;;;25.90;49.56
59531;BME280;45349;48.692;8.186;2022-08-01T09:14:03;98807.59;;;25.74;49.88
59531;BME280;45349;48.692;8.186;2022-08-01T09:16:31;98805.47;;;25.54;50.78
59531;BME280;45349;48.692;8.186;2022-08-01T09:19:13;98805.28;;;25.44;50.73
59531;BME280;45349;48.692;8.186;2022-08-01T09:21:55;98808.94;;;25.55;50.74
59531;BME280;45349;48.692;8.186;2022-08-01T09:24:24;98800.16;;;25.99;49.91
59531;BME280;45349;48.692;8.186;2022-08-01T09:26:51;98805.69;;;26.31;49.78
59531;BME280;45349;48.692;8.186;2022-08-01T09:29:22;98820.94;;;26.58;48.54
59531;BME280;45349;48.692;8.186;2022-08-01T09:31:49;98818.31;;;26.63;48.32
59531;BME280;45349;48.692;8.186;2022-08-01T09:34:24;98820.09;;;26.80;47.44
59531;BME280;45349;48.692;8.186;2022-08-01T09:36:52;98823.41;;;26.87;45.77
59531;BME280;45349;48.692;8.186;2022-08-01T09:39:23;98813.06;;;26.74;46.89
59531;BME280;45349;48.692;8.186;2022-08-01T09:41:51;98812.97;;;26.63;47.64
59531;BME280;45349;48.692;8.186;2022-08-01T09:44:18;98823.47;;;26.92;46.66
59531;BME280;45349;48.692;8.186;2022-08-01T09:47:06;98813.28;;;26.94;46.76
59531;BME280;45349;48.692;8.186;2022-08-01T09:49:34;98810.47;;;27.11;46.12
59531;BME280;45349;48.692;8.186;2022-08-01T09:52:11;98820.81;;;27.68;45.34
59531;BME280;45349;48.692;8.186;2022-08-01T09:54:38;98807.63;;;27.56;44.70
59531;BME280;45349;48.692;8.186;2022-08-01T09:57:10;98810.81;;;28.01;43.31
59531;BME280;45349;48.692;8.186;2022-08-01T09:59:58;98808.41;;;27.51;44.54
59531;BME280;45349;48.692;8.186;2022-08-01T10:02:33;98819.00;;;27.74;44.34
59531;BME280;45349;48.692;8.186;2022-08-01T10:05:02;98812.22;;;27.66;44.00
59531;BME280;45349;48.692;8.186;2022-08-01T10:07:29;98805.50;;;27.58;44.02
59531;BME280;45349;48.692;8.186;2022-08-01T10:10:09;98812.56;;;27.37;44.67
59531;BME280;45349;48.692;8.186;2022-08-01T10:12:37;98807.13;;;27.26;45.37
59531;BME280;45349;48.692;8.186;2022-08-01T10:15:05;98810.53;;;27.17;45.50
59531;BME280;45349;48.692;8.186;2022-08-01T10:17:34;98806.38;;;26.71;45.90
59531;BME280;45349;48.692;8.186;2022-08-01T10:20:20;98800.13;;;26.88;45.43
59531;BME280;45349;48.692;8.186;2022-08-01T10:22:47;98805.94;;;26.57;46.46
59531;BME280;45349;48.692;8.186;2022-08-01T10:25:17;98803.34;;;26.90;45.08
59531;BME280;45349;48.692;8.186;2022-08-01T10:27:45;98797.09;;;27.11;44.80
59531;BME280;45349;48.692;8.186;2022-08-01T10:30:12;98798.66;;;27.02;44.41
59531;BME280;45349;48.692;8.186;2022-08-01T10:33:00;98794.53;;;26.94;44.59
59531;BME280;45349;48.692;8.186;2022-08-01T10:35:27;98791.91;;;27.00;44.95
59531;BME280;45349;48.692;8.186;2022-08-01T10:37:54;98787.16;;;27.45;43.82
59531;BME280;45349;48.692;8.186;2022-08-01T10:40:23;98782.84;;;27.87;43.84
59531;BME280;45349;48.692;8.186;2022-08-01T10:42:51;98785.91;;;28.06;42.61
59531;BME280;45349;48.692;8.186;2022-08-01T10:45:18;98782.03;;;28.55;40.54
59531;BME280;45349;48.692;8.186;2022-08-01T10:47:50;98783.16;;;28.85;39.86
59531;BME280;45349;48.692;8.186;2022-08-01T10:50:26;98785.53;;;28.61;39.99
59531;BME280;45349;48.692;8.186;2022-08-01T10:53:06;98784.72;;;28.60;39.47
59531;BME280;45349;48.692;8.186;2022-08-01T10:55:46;98781.34;;;28.11;40.89
59531;BME280;45349;48.692;8.186;2022-08-01T10:58:13;98780.50;;;28.01;40.55
59531;BME280;45349;48.692;8.186;2022-08-01T11:00:39;98787.63;;;28.38;40.16
59531;BME280;45349;48.692;8.186;2022-08-01T11:03:07;98778.91;;;28.10;40.84
59531;BME280;45349;48.692;8.186;2022-08-01T11:05:35;98779.66;;;27.47;43.10
59531;BME280;45349;48.692;8.186;2022-08-01T11:08:07;98773.97;;;27.38;43.89
59531;BME280;45349;48.692;8.186;2022-08-01T11:10:40;98777.75;;;27.42;43.56
59531;BME280;45349;48.692;8.186;2022-08-01T11:13:08;98777.25;;;27.45;44.07
59531;BME280;45349;48.692;8.186;2022-08-01T11:15:36;98771.88;;;27.88;43.24
59531;BME280;45349;48.692;8.186;2022-08-01T11:18:04;98774.47;;;28.31;42.37
59531;BME280;45349;48.692;8.186;2022-08-01T11:20:57;98777.44;;;28.45;41.45
59531;BME280;45349;48.692;8.186;2022-08-01T11:23:26;98769.00;;;28.10;41.81
59531;BME280;45349;48.692;8.186;2022-08-01T11:26:08;98757.44;;;28.10;42.53
59531;BME280;45349;48.692;8.186;2022-08-01T11:28:35;98758.34;;;28.26;42.54
59531;BME280;45349;48.692;8.186;2022-08-01T11:31:28;98757.59;;;28.62;41.94
59531;BME280;45349;48.692;8.186;2022-08-01T11:33:55;98746.91;;;28.82;40.94
59531;BME280;45349;48.692;8.186;2022-08-01T11:36:23;98749.84;;;29.12;40.61
59531;BME280;45349;48.692;8.186;2022-08-01T11:39:14;98749.31;;;29.05;40.18
59531;BME280;45349;48.692;8.186;2022-08-01T11:41:43;98740.13;;;29.31;38.68
59531;BME280;45349;48.692;8.186;2022-08-01T11:44:12;98738.72;;;29.70;38.95
59531;BME280;45349;48.692;8.186;2022-08-01T11:47:01;98743.66;;;30.13;37.07
59531;BME280;45349;48.692;8.186;2022-08-01T11:49:43;98749.19;;;29.72;37.01
59531;BME280;45349;48.692;8.186;2022-08-01T11:52:14;98748.47;;;29.45;37.41
59531;BME280;45349;48.692;8.186;2022-08-01T11:54:43;98737.16;;;29.49;37.71
59531;BME280;45349;48.692;8.186;2022-08-01T11:57:11;98747.31;;;29.67;37.90
59531;BME280;45349;48.692;8.186;2022-08-01T11:59:40;98734.75;;;29.31;39.25
59531;BME280;45349;48.692;8.186;2022-08-01T12:02:19;98746.97;;;29.84;38.17
59531;BME280;45349;48.692;8.186;2022-08-01T12:04:53;98743.84;;;29.62;38.51
59531;BME280;45349;48.692;8.186;2022-08-01T12:07:22;98735.59;;;29.11;39.67
59531;BME280;45349;48.692;8.186;2022-08-01T12:09:57;98739.31;;;29.41;38.84
59531;BME280;45349;48.692;8.186;2022-08-01T12:12:24;98735.34;;;28.87;39.70
59531;BME280;45349;48.692;8.186;2022-08-01T12:14:55;98735.84;;;28.73;40.18
59531;BME280;45349;48.692;8.186;2022-08-01T12:17:31;98732.59;;;28.35;40.76
59531;BME280;45349;48.692;8.186;2022-08-01T12:19:58;98744.03;;;28.10;40.23
59531;BME280;45349;48.692;8.186;2022-08-01T12:22:26;98727.22;;;28.30;40.69
59531;BME280;45349;48.692;8.186;2022-08-01T12:24:53;98733.66;;;28.29;39.56
59531;BME280;45349;48.692;8.186;2022-08-01T12:27:24;98736.94;;;28.93;39.05
59531;BME280;45349;48.692;8.186;2022-08-01T12:29:51;98732.63;;;29.18;39.12
59531;BME280;45349;48.692;8.186;2022-08-01T12:32:23;98725.63;;;29.43;37.73
59531;BME280;45349;48.692;8.186;2022-08-01T12:34:51;98722.44;;;29.10;38.22
59531;BME280;45349;48.692;8.186;2022-08-01T12:37:18;98717.06;;;29.05;37.68
59531;BME280;45349;48.692;8.186;2022-08-01T12:39:47;98717.03;;;29.25;37.96
59531;BME280;45349;48.692;8.186;2022-08-01T12:42:14;98720.22;;;29.48;38.27
59531;BME280;45349;48.692;8.186;2022-08-01T12:44:43;98715.56;;;29.69;37.79
59531;BME280;45349;48.692;8.186;2022-08-01T12:47:11;98722.66;;;30.10;36.79
59531;BME280;45349;48.692;8.186;2022-08-01T12:49:40;98724.31;;;29.09;38.53
59531;BME280;45349;48.692;8.186;2022-08-01T12:52:08;98732.38;;;29.04;38.77
59531;BME280;45349;48.692;8.186;2022-08-01T12:55:01;98715.97;;;29.06;38.69
59531;BME280;45349;48.692;8.186;2022-08-01T12:57:28;98720.00;;;28.62;39.92
59531;BME280;45349;48.692;8.186;2022-08-01T13:00:15;98716.75;;;28.44;39.99
59531;BME280;45349;48.692;8.186;2022-08-01T13:02:44;98723.25;;;28.95;39.30
59531;BME280;45349;48.692;8.186;2022-08-01T13:05:12;98716.50;;;29.39;38.87
59531;BME280;45349;48.692;8.186;2022-08-01T13:07:41;98724.75;;;29.58;38.62
59531;BME280;45349;48.692;8.186;2022-08-01T13:10:11;98715.09;;;29.52;37.71
59531;BME280;45349;48.692;8.186;2022-08-01T13:12:39;98714.06;;;29.16;38.32